Watertown, Wisconsin
Current Conditions -  °F | °C
As of 11:15 PM on Saturday 25 Oct 2014 (Local Time) from KRYV Reporting Station
Clear Clear  
Wind Chill: 47°   Ceiling: Unl
Heat Index: 47°   Visibility: 10mi
Dew Point: 30°   Wind: 3mph
Humidity: 50%   Direction: 270°W
Pressure: 29.96"   Gusts: NA
Location:  43.2°N, 88.72°W
Report Text: KRYV 260415Z AUTO 27003KT 10SM CLR 09/M01 A2996 RMK AO2 T00861012
Loading
Personal Weather Stations






























Interactive Weather Map
Tropical Storm Tracking
New forecast layout! Learn more

10-Day Weather Forecast

Advertisements
Track Severe Weather on mobile